Time;durP1;ratioP1;P1;durP2;ratioP2;P2;SDS_P1;SDS_P2;PMS_P1;PMS_P2;Temp;Humidity;BMP_temperature;BMP_pressure;BME280_temperature;BME280_humidity;BME280_pressure;Samples;Min_cycle;Max_cycle;Signal;HPM_P1;HPM_P2
2022/01/08 00:01:34;;;;;;;0.37;0.37;;;2.80;98.20;;;;;;5073480;28;20168;-68
2022/01/08 00:03:59;;;;;;;0.30;0.30;;;2.90;98.10;;;;;;5074242;28;20623;-68
2022/01/08 00:06:25;;;;;;;0.30;0.30;;;3.00;97.90;;;;;;5077424;28;20836;-68
2022/01/08 00:08:51;;;;;;;0.40;0.40;;;3.00;97.60;;;;;;5077313;28;20183;-68
2022/01/08 00:11:24;;;;;;;0.30;0.30;;;3.00;97.60;;;;;;5077432;28;20427;-68
2022/01/08 00:13:50;;;;;;;0.38;0.38;;;3.00;97.50;;;;;;5077647;28;20225;-68
2022/01/08 00:16:15;;;;;;;0.30;0.30;;;3.10;97.40;;;;;;5077193;28;20283;-68
2022/01/08 00:18:41;;;;;;;0.40;0.40;;;3.10;97.20;;;;;;5077049;28;20166;-68
2022/01/08 00:21:06;;;;;;;0.30;0.30;;;3.20;97.20;;;;;;5077172;28;20684;-68
2022/01/08 00:23:32;;;;;;;0.30;0.30;;;3.30;97.10;;;;;;5077173;28;20168;-68
2022/01/08 00:26:01;;;;;;;0.40;0.40;;;3.30;97.10;;;;;;5077112;28;20216;-68
2022/01/08 00:28:27;;;;;;;0.35;0.35;;;3.20;97.00;;;;;;5077031;28;20161;-68
2022/01/08 00:30:53;;;;;;;0.40;0.40;;;3.20;97.20;;;;;;5076941;28;20212;-68
2022/01/08 00:33:19;;;;;;;0.38;0.38;;;3.10;97.00;;;;;;5077075;28;20173;-68
2022/01/08 00:35:45;;;;;;;0.32;0.32;;;3.20;97.30;;;;;;5076804;28;20201;-68
2022/01/08 00:38:11;;;;;;;0.30;0.30;;;3.30;97.30;;;;;;5076877;28;20548;-69
2022/01/08 00:40:37;;;;;;;0.30;0.30;;;3.40;97.30;;;;;;5076912;28;20197;-68
2022/01/08 00:43:03;;;;;;;0.30;0.30;;;3.50;97.00;;;;;;5076876;28;20396;-69
2022/01/08 00:45:29;;;;;;;0.37;0.37;;;3.60;97.00;;;;;;5076793;28;20242;-68
2022/01/08 00:47:54;;;;;;;0.30;0.30;;;3.60;96.80;;;;;;5076680;28;20453;-68
2022/01/08 00:50:21;;;;;;;0.30;0.30;;;3.60;96.90;;;;;;5076523;28;20226;-68
2022/01/08 00:52:47;;;;;;;0.30;0.30;;;3.40;96.80;;;;;;5076645;28;20165;-68
2022/01/08 00:55:13;;;;;;;0.37;0.37;;;3.40;97.30;;;;;;5076662;28;20534;-68
2022/01/08 00:57:39;;;;;;;0.30;0.30;;;3.50;97.40;;;;;;5076446;28;20233;-68
2022/01/08 01:00:08;;;;;;;0.30;0.30;;;3.40;97.40;;;;;;5076257;28;20212;-68
2022/01/08 01:02:35;;;;;;;0.40;0.40;;;3.30;97.70;;;;;;5076755;28;20406;-68
2022/01/08 01:05:01;;;;;;;0.30;0.30;;;3.40;97.90;;;;;;5076299;28;20176;-68
2022/01/08 01:07:26;;;;;;;0.40;0.40;;;3.30;97.80;;;;;;5076373;28;20157;-68
2022/01/08 01:09:52;;;;;;;0.40;0.40;;;3.30;98.00;;;;;;5074933;28;20415;-68
2022/01/08 01:12:17;;;;;;;0.30;0.30;;;3.30;98.00;;;;;;5076436;28;20199;-68
2022/01/08 01:14:43;;;;;;;0.33;0.33;;;3.00;98.10;;;;;;5076320;28;20528;-68
2022/01/08 01:17:09;;;;;;;0.40;0.40;;;2.90;98.60;;;;;;5075273;28;20206;-68
2022/01/08 01:19:36;;;;;;;0.30;0.30;;;3.00;98.90;;;;;;5075957;28;20204;-68
2022/01/08 01:22:02;;;;;;;0.40;0.40;;;2.90;98.90;;;;;;5076126;28;20167;-68
2022/01/08 01:24:29;;;;;;;0.30;0.30;;;3.00;99.10;;;;;;5076458;28;20176;-68
2022/01/08 01:29:51;;;;;;;0.30;0.30;;;3.10;98.80;;;;;;5075729;28;20276;-68
2022/01/08 01:43:24;;;;;;;0.30;0.30;;;2.90;99.10;;;;;;5075949;28;20179;-68
2022/01/08 01:48:33;;;;;;;0.30;0.30;;;3.00;99.30;;;;;;5075409;28;20228;-68
2022/01/08 01:50:59;;;;;;;0.40;0.40;;;3.10;99.30;;;;;;5075631;28;20259;-68
2022/01/08 01:53:25;;;;;;;0.30;0.30;;;2.80;99.10;;;;;;5074301;28;20650;-68
2022/01/08 01:55:50;;;;;;;0.30;0.30;;;2.80;99.40;;;;;;5075470;28;20186;-68
2022/01/08 01:58:17;;;;;;;0.40;0.40;;;2.70;99.60;;;;;;5075096;28;20234;-68
2022/01/08 02:00:44;;;;;;;0.30;0.30;;;2.90;99.70;;;;;;5075415;28;20203;-68
2022/01/08 02:03:10;;;;;;;0.32;0.32;;;3.10;99.70;;;;;;5075258;28;20191;-68
2022/01/08 02:05:35;;;;;;;0.30;0.30;;;3.10;99.40;;;;;;5073914;28;20192;-68
2022/01/08 02:08:01;;;;;;;0.30;0.30;;;3.20;99.30;;;;;;5075110;28;20167;-68
2022/01/08 02:10:27;;;;;;;0.40;0.40;;;3.30;99.10;;;;;;5075230;28;20177;-68
2022/01/08 02:12:52;;;;;;;0.30;0.30;;;3.20;98.90;;;;;;5075240;28;20187;-68
2022/01/08 02:15:18;;;;;;;0.30;0.30;;;3.20;99.00;;;;;;5075192;28;20191;-68
2022/01/08 02:17:43;;;;;;;0.33;0.33;;;3.30;99.00;;;;;;5075014;28;20176;-68
2022/01/08 02:20:11;;;;;;;0.30;0.30;;;3.30;98.90;;;;;;5074768;28;20245;-68
2022/01/08 02:22:37;;;;;;;0.30;0.30;;;3.20;99.00;;;;;;5074959;28;20172;-68
2022/01/08 02:25:03;;;;;;;0.30;0.30;;;3.30;99.00;;;;;;5074782;28;20186;-68
2022/01/08 02:27:28;;;;;;;0.38;0.38;;;3.30;99.10;;;;;;5073919;28;20180;-68
2022/01/08 02:29:54;;;;;;;0.30;0.30;;;3.40;99.00;;;;;;5074422;28;20170;-68
2022/01/08 02:32:28;;;;;;;0.30;0.30;;;3.10;98.90;;;;;;5075142;28;20172;-68
2022/01/08 02:34:54;;;;;;;0.30;0.30;;;3.00;99.20;;;;;;5074689;28;20706;-68
2022/01/08 02:37:25;;;;;;;0.30;0.30;;;2.90;99.40;;;;;;5074493;28;20199;-68
2022/01/08 02:39:51;;;;;;;0.30;0.30;;;3.00;99.70;;;;;;5074257;28;20588;-68
2022/01/08 02:42:20;;;;;;;0.40;0.40;;;3.00;99.70;;;;;;5074315;28;20246;-68
2022/01/08 02:44:48;;;;;;;0.30;0.30;;;3.20;99.50;;;;;;5074571;28;20196;-68
2022/01/08 02:47:15;;;;;;;0.30;0.30;;;3.10;99.20;;;;;;5074483;28;20197;-68
2022/01/08 02:49:41;;;;;;;0.30;0.30;;;3.20;99.50;;;;;;5074241;28;20169;-68
2022/01/08 02:52:07;;;;;;;0.30;0.30;;;3.20;99.20;;;;;;5074615;28;20181;-68
2022/01/08 02:54:33;;;;;;;0.40;0.40;;;3.00;99.30;;;;;;5074206;28;20782;-68
2022/01/08 02:56:59;;;;;;;0.30;0.30;;;3.10;99.80;;;;;;5074197;28;20250;-68
2022/01/08 02:59:25;;;;;;;0.30;0.30;;;3.20;99.60;;;;;;5073795;28;20963;-68
2022/01/08 03:01:52;;;;;;;0.30;0.30;;;3.30;99.50;;;;;;5074343;28;20169;-68
2022/01/08 03:04:18;;;;;;;0.30;0.30;;;3.50;99.40;;;;;;5074265;28;20765;-68
2022/01/08 03:06:44;;;;;;;0.37;0.37;;;3.50;99.10;;;;;;5074101;28;20191;-68
2022/01/08 03:09:10;;;;;;;0.30;0.30;;;3.50;99.00;;;;;;5073890;28;20410;-68
2022/01/08 03:11:38;;;;;;;0.30;0.30;;;3.40;99.10;;;;;;5074065;28;20173;-68
2022/01/08 03:14:04;;;;;;;0.30;0.30;;;3.30;98.90;;;;;;5074306;28;20255;-68
2022/01/08 03:16:29;;;;;;;0.30;0.30;;;3.20;99.40;;;;;;5073753;28;20199;-68
2022/01/08 03:18:55;;;;;;;0.30;0.30;;;3.40;99.70;;;;;;5073852;28;20562;-68
2022/01/08 03:21:22;;;;;;;0.30;0.30;;;3.40;99.70;;;;;;5073958;28;20165;-68
2022/01/08 03:23:59;;;;;;;0.40;0.40;;;3.50;99.50;;;;;;5073960;28;20176;-68
2022/01/08 03:26:26;;;;;;;0.30;0.30;;;3.30;99.50;;;;;;5073715;28;20542;-68
2022/01/08 03:28:53;;;;;;;0.30;0.30;;;3.40;99.70;;;;;;5073698;28;20227;-68
2022/01/08 03:31:20;;;;;;;0.30;0.30;;;3.40;99.60;;;;;;5073885;28;20216;-68
2022/01/08 03:33:46;;;;;;;0.30;0.30;;;3.20;99.80;;;;;;5073867;28;20193;-68
2022/01/08 03:36:13;;;;;;;0.30;0.30;;;3.20;99.90;;;;;;5073568;28;20616;-68
2022/01/08 03:38:39;;;;;;;0.30;0.30;;;3.10;99.90;;;;;;5073069;28;20180;-68
2022/01/08 03:41:05;;;;;;;0.30;0.30;;;3.10;99.90;;;;;;5073730;28;20176;-68
2022/01/08 03:43:31;;;;;;;0.32;0.32;;;3.20;99.90;;;;;;5073603;28;20174;-68
2022/01/08 03:45:57;;;;;;;0.40;0.40;;;3.30;99.90;;;;;;5073518;28;20282;-68
2022/01/08 03:51:06;;;;;;;0.40;0.40;;;3.40;99.50;;;;;;5073604;28;20204;-68
2022/01/08 03:53:32;;;;;;;0.30;0.30;;;3.40;99.10;;;;;;5073429;28;20219;-68
2022/01/08 03:55:58;;;;;;;0.30;0.30;;;3.40;99.10;;;;;;5073422;28;20271;-68
2022/01/08 03:58:25;;;;;;;0.30;0.30;;;3.50;98.90;;;;;;5073119;28;20247;-68
2022/01/08 04:00:52;;;;;;;0.38;0.38;;;3.40;98.80;;;;;;5073248;28;20276;-68
2022/01/08 04:03:18;;;;;;;0.33;0.33;;;3.40;98.30;;;;;;5073484;28;20165;-68
2022/01/08 04:05:47;;;;;;;0.30;0.30;;;3.10;98.40;;;;;;5073345;28;20185;-68
2022/01/08 04:08:14;;;;;;;0.30;0.30;;;3.20;98.60;;;;;;5073280;28;20169;-68
2022/01/08 04:10:39;;;;;;;0.30;0.30;;;3.20;98.40;;;;;;5073291;28;20219;-68
2022/01/08 04:13:11;;;;;;;0.30;0.30;;;3.30;98.70;;;;;;5073313;28;20176;-68
2022/01/08 04:15:40;;;;;;;0.40;0.40;;;3.30;98.70;;;;;;5073264;28;20427;-68
2022/01/08 04:18:06;;;;;;;0.30;0.30;;;3.40;98.60;;;;;;5073082;28;20238;-68
2022/01/08 04:20:35;;;;;;;0.35;0.35;;;3.40;98.60;;;;;;5073115;28;20653;-68
2022/01/08 04:23:02;;;;;;;0.30;0.30;;;3.40;98.70;;;;;;5073125;28;20217;-68
2022/01/08 04:25:30;;;;;;;0.30;0.30;;;3.50;98.60;;;;;;5073058;28;20180;-68
2022/01/08 04:27:56;;;;;;;0.40;0.40;;;3.20;98.50;;;;;;5073173;28;20174;-68
2022/01/08 04:30:21;;;;;;;0.30;0.30;;;3.00;99.00;;;;;;5073292;28;20175;-68
2022/01/08 04:32:47;;;;;;;0.30;0.30;;;3.10;99.50;;;;;;5072958;28;20170;-68
2022/01/08 04:35:13;;;;;;;0.30;0.30;;;3.30;99.60;;;;;;5072894;28;20171;-68
2022/01/08 04:37:38;;;;;;;0.30;0.30;;;3.50;99.50;;;;;;5073176;28;20218;-68
2022/01/08 04:40:05;;;;;;;0.30;0.30;;;3.50;98.90;;;;;;5072707;28;20206;-68
2022/01/08 04:42:30;;;;;;;0.30;0.30;;;3.30;99.00;;;;;;5073237;28;20768;-68
2022/01/08 04:44:56;;;;;;;0.30;0.30;;;3.00;99.60;;;;;;5073066;28;20172;-68
2022/01/08 04:47:22;;;;;;;0.40;0.40;;;2.80;99.90;;;;;;5072762;28;20188;-68
2022/01/08 04:49:47;;;;;;;0.30;0.30;;;2.90;99.90;;;;;;5072658;28;20214;-68
2022/01/08 04:52:13;;;;;;;0.30;0.30;;;2.80;99.90;;;;;;5075486;28;20175;-68
2022/01/08 04:54:38;;;;;;;0.30;0.30;;;2.60;99.90;;;;;;5076616;28;20177;-68
2022/01/08 04:57:04;;;;;;;0.30;0.30;;;2.50;99.90;;;;;;5076427;28;20197;-68
2022/01/08 04:59:30;;;;;;;0.40;0.40;;;2.80;99.90;;;;;;5076123;28;20200;-68
2022/01/08 05:01:55;;;;;;;0.30;0.30;;;3.00;99.90;;;;;;5076524;28;20173;-68
2022/01/08 05:04:21;;;;;;;0.30;0.30;;;2.90;99.90;;;;;;5076367;28;20180;-68
2022/01/08 05:06:47;;;;;;;0.40;0.40;;;2.60;99.90;;;;;;5076302;28;20187;-68
2022/01/08 05:09:13;;;;;;;0.40;0.40;;;2.80;99.90;;;;;;5076140;28;20549;-68
2022/01/08 05:11:38;;;;;;;0.30;0.30;;;3.00;99.90;;;;;;5076360;28;20760;-68
2022/01/08 05:14:05;;;;;;;0.30;0.30;;;3.20;99.90;;;;;;5076369;28;20239;-68
2022/01/08 05:16:31;;;;;;;0.30;0.30;;;3.30;99.70;;;;;;5076021;28;20234;-67
2022/01/08 05:18:57;;;;;;;0.40;0.40;;;3.40;99.20;;;;;;5075885;28;20196;-68
2022/01/08 05:21:29;;;;;;;0.30;0.30;;;3.40;99.10;;;;;;5076096;28;20811;-68
2022/01/08 05:23:56;;;;;;;0.40;0.40;;;3.50;99.10;;;;;;5076244;28;20179;-68
2022/01/08 05:26:25;;;;;;;0.40;0.40;;;3.40;98.70;;;;;;5076225;28;20210;-68
2022/01/08 05:28:51;;;;;;;0.30;0.30;;;3.50;98.50;;;;;;5075748;28;20638;-68
2022/01/08 05:31:22;;;;;;;0.30;0.30;;;3.10;98.40;;;;;;5076038;28;20541;-68
2022/01/08 05:33:48;;;;;;;0.38;0.38;;;3.20;98.80;;;;;;5075889;28;20542;-68
2022/01/08 05:36:14;;;;;;;0.30;0.30;;;3.20;98.60;;;;;;5075682;28;20242;-68
2022/01/08 05:38:40;;;;;;;0.30;0.30;;;3.10;98.60;;;;;;5075653;28;20293;-68
2022/01/08 05:41:06;;;;;;;0.30;0.30;;;2.90;98.50;;;;;;5075863;28;20246;-68
2022/01/08 05:43:31;;;;;;;0.30;0.30;;;2.70;98.40;;;;;;5075689;28;20423;-68
2022/01/08 05:45:57;;;;;;;0.40;0.40;;;2.80;98.30;;;;;;5075413;28;20278;-68
2022/01/08 05:48:24;;;;;;;0.30;0.30;;;3.00;98.30;;;;;;5075218;28;20168;-68
2022/01/08 05:50:49;;;;;;;0.40;0.40;;;3.10;97.60;;;;;;5075399;28;20177;-69
2022/01/08 05:53:20;;;;;;;0.30;0.30;;;3.20;97.30;;;;;;5075447;28;20176;-68
2022/01/08 05:55:47;;;;;;;0.32;0.32;;;3.10;97.40;;;;;;5075465;28;20421;-68
2022/01/08 05:58:13;;;;;;;0.30;0.30;;;3.00;97.30;;;;;;5074905;28;20292;-68
2022/01/08 06:00:39;;;;;;;0.40;0.40;;;3.10;97.10;;;;;;5075449;28;20288;-68
2022/01/08 06:03:04;;;;;;;0.40;0.40;;;3.00;96.90;;;;;;5074999;28;20787;-68
2022/01/08 06:05:30;;;;;;;0.30;0.30;;;2.50;96.50;;;;;;5075110;28;20203;-68
2022/01/08 06:07:56;;;;;;;0.40;0.40;;;2.60;97.10;;;;;;5075031;28;20173;-68
2022/01/08 06:10:21;;;;;;;0.33;0.33;;;2.50;96.40;;;;;;5075204;28;20190;-68
2022/01/08 06:12:48;;;;;;;0.40;0.40;;;2.60;96.30;;;;;;5075139;28;20181;-68
2022/01/08 06:15:13;;;;;;;0.32;0.32;;;2.60;96.90;;;;;;5075082;28;20220;-68
2022/01/08 06:17:39;;;;;;;0.40;0.40;;;2.40;97.00;;;;;;5074841;28;20520;-68
2022/01/08 06:20:06;;;;;;;0.50;0.50;;;2.30;97.00;;;;;;5074711;28;20216;-68
2022/01/08 06:22:32;;;;;;;0.30;0.30;;;2.50;97.10;;;;;;5074947;28;20402;-68
2022/01/08 06:24:57;;;;;;;0.40;0.40;;;2.80;96.90;;;;;;5075030;28;20321;-68
2022/01/08 06:27:23;;;;;;;0.30;0.30;;;2.90;96.20;;;;;;5074554;28;20567;-68
2022/01/08 06:29:49;;;;;;;0.40;0.40;;;3.00;96.20;;;;;;5074478;28;20201;-68
2022/01/08 06:32:14;;;;;;;0.30;0.30;;;3.10;96.10;;;;;;5074810;28;20180;-68
2022/01/08 06:34:41;;;;;;;0.40;0.40;;;3.00;95.90;;;;;;5074671;28;20178;-68
2022/01/08 06:37:07;;;;;;;0.40;0.40;;;2.90;95.80;;;;;;5074498;28;20575;-68
2022/01/08 06:39:33;;;;;;;0.40;0.40;;;2.90;95.50;;;;;;5074258;28;20282;-68
2022/01/08 06:41:59;;;;;;;0.40;0.40;;;2.90;95.20;;;;;;5074380;28;20164;-68
2022/01/08 06:44:24;;;;;;;0.30;0.30;;;2.80;95.00;;;;;;5074427;28;20402;-68
2022/01/08 06:46:50;;;;;;;0.40;0.40;;;2.90;95.40;;;;;;5074297;28;20193;-68
2022/01/08 06:49:16;;;;;;;0.40;0.40;;;2.90;95.60;;;;;;5074239;28;20226;-70
2022/01/08 06:51:42;;;;;;;0.40;0.40;;;2.80;96.00;;;;;;5074427;28;20690;-68
2022/01/08 06:54:07;;;;;;;0.30;0.30;;;2.40;95.50;;;;;;5074299;28;20172;-68
2022/01/08 06:56:33;;;;;;;0.40;0.40;;;1.90;95.30;;;;;;5074330;28;20192;-68
2022/01/08 06:58:59;;;;;;;0.40;0.40;;;1.90;96.10;;;;;;5073937;28;20211;-68
2022/01/08 07:01:24;;;;;;;0.30;0.30;;;2.10;96.20;;;;;;5074205;28;20173;-68
2022/01/08 07:03:50;;;;;;;0.40;0.40;;;2.10;96.20;;;;;;5074079;28;20164;-68
2022/01/08 07:06:16;;;;;;;0.30;0.30;;;2.40;96.30;;;;;;5073936;28;20433;-68
2022/01/08 07:08:42;;;;;;;0.30;0.30;;;2.40;95.80;;;;;;5073810;28;20168;-68
2022/01/08 07:11:09;;;;;;;0.30;0.30;;;2.50;95.30;;;;;;5073858;28;20341;-68
2022/01/08 07:13:34;;;;;;;0.30;0.30;;;2.50;95.30;;;;;;5073334;28;20182;-68
2022/01/08 07:16:00;;;;;;;0.30;0.30;;;2.60;95.20;;;;;;5073915;28;20192;-68
2022/01/08 07:18:26;;;;;;;0.33;0.33;;;2.70;95.20;;;;;;5072414;28;20172;-68
2022/01/08 07:20:51;;;;;;;0.30;0.30;;;2.80;95.30;;;;;;5073756;28;20204;-68
2022/01/08 07:23:17;;;;;;;0.30;0.30;;;2.80;95.20;;;;;;5073892;28;20240;-68
2022/01/08 07:25:42;;;;;;;0.33;0.33;;;2.80;95.30;;;;;;5073801;28;20184;-68
2022/01/08 07:28:08;;;;;;;0.40;0.40;;;2.80;95.40;;;;;;5073458;28;20252;-68
2022/01/08 07:30:34;;;;;;;0.30;0.30;;;2.70;94.90;;;;;;5073636;28;20181;-68
2022/01/08 07:32:59;;;;;;;0.40;0.40;;;2.70;95.20;;;;;;5074003;28;20168;-68
2022/01/08 07:35:25;;;;;;;0.33;0.33;;;2.70;95.20;;;;;;5073702;28;20187;-68
2022/01/08 07:37:52;;;;;;;0.30;0.30;;;2.50;95.30;;;;;;5073569;28;20172;-68
2022/01/08 07:40:19;;;;;;;0.30;0.30;;;2.60;95.40;;;;;;5073566;28;20196;-68
2022/01/08 07:42:44;;;;;;;0.40;0.40;;;2.70;95.50;;;;;;5073717;28;20184;-68
2022/01/08 07:45:11;;;;;;;0.30;0.30;;;2.80;95.60;;;;;;5073812;28;20168;-68
2022/01/08 07:47:37;;;;;;;0.30;0.30;;;2.70;95.60;;;;;;5073521;28;20407;-68
2022/01/08 07:50:04;;;;;;;0.30;0.30;;;2.70;95.80;;;;;;5073255;28;20181;-68
2022/01/08 07:52:29;;;;;;;0.30;0.30;;;2.80;95.80;;;;;;5073482;28;20174;-68
2022/01/08 07:54:55;;;;;;;0.40;0.40;;;2.70;95.90;;;;;;5073521;28;20545;-68
2022/01/08 07:57:21;;;;;;;0.30;0.30;;;2.70;96.10;;;;;;5073225;28;20625;-68
2022/01/08 07:59:46;;;;;;;0.30;0.30;;;2.80;96.30;;;;;;5073120;28;20568;-68
2022/01/08 08:02:12;;;;;;;0.40;0.40;;;2.80;95.90;;;;;;5073631;28;20225;-68
2022/01/08 08:04:38;;;;;;;0.30;0.30;;;2.60;95.80;;;;;;5073493;28;20173;-68
2022/01/08 08:07:04;;;;;;;0.30;0.30;;;2.50;95.80;;;;;;5073181;28;20233;-68
2022/01/08 08:09:30;;;;;;;0.30;0.30;;;2.50;95.90;;;;;;5073009;28;20580;-68
2022/01/08 08:11:55;;;;;;;0.40;0.40;;;2.60;95.70;;;;;;5073240;28;20223;-68
2022/01/08 08:14:21;;;;;;;0.30;0.30;;;2.70;95.70;;;;;;5073293;28;20655;-68
2022/01/08 08:16:47;;;;;;;0.30;0.30;;;2.60;95.30;;;;;;5073051;28;20188;-68
2022/01/08 08:19:12;;;;;;;0.40;0.40;;;2.20;95.50;;;;;;5073092;28;20588;-68
2022/01/08 08:21:38;;;;;;;0.30;0.30;;;2.40;96.00;;;;;;5073164;28;20579;-68
2022/01/08 08:24:06;;;;;;;0.30;0.30;;;2.60;95.70;;;;;;5073259;28;20169;-68
2022/01/08 08:26:32;;;;;;;0.40;0.40;;;2.90;95.30;;;;;;5074588;28;20349;-68
2022/01/08 08:28:58;;;;;;;0.40;0.40;;;3.10;95.30;;;;;;5077095;28;20210;-68
2022/01/08 08:31:24;;;;;;;0.40;0.40;;;3.10;95.00;;;;;;5077161;28;20263;-68
2022/01/08 08:33:50;;;;;;;0.40;0.40;;;3.20;95.00;;;;;;5076965;28;20409;-68
2022/01/08 08:36:15;;;;;;;0.30;0.30;;;3.10;94.90;;;;;;5076816;28;20189;-68
2022/01/08 08:38:41;;;;;;;0.40;0.40;;;3.10;95.10;;;;;;5076670;28;20298;-68
2022/01/08 08:41:07;;;;;;;0.40;0.40;;;3.10;95.10;;;;;;5076832;28;20180;-68
2022/01/08 08:43:32;;;;;;;0.37;0.37;;;2.90;95.10;;;;;;5076757;28;20172;-68
2022/01/08 08:45:58;;;;;;;0.40;0.40;;;2.80;95.20;;;;;;5076635;28;20686;-68
2022/01/08 08:48:23;;;;;;;0.37;0.37;;;2.80;95.60;;;;;;5076540;28;20172;-68
2022/01/08 08:50:49;;;;;;;0.30;0.30;;;2.70;95.70;;;;;;5076837;28;20173;-68
2022/01/08 08:53:15;;;;;;;0.30;0.30;;;2.60;95.60;;;;;;5077184;28;20176;-68
2022/01/08 08:55:41;;;;;;;0.30;0.30;;;2.80;95.80;;;;;;5076690;28;20208;-68
2022/01/08 08:58:06;;;;;;;0.40;0.40;;;2.70;95.70;;;;;;5076146;28;20401;-68
2022/01/08 09:00:32;;;;;;;0.40;0.40;;;2.80;95.90;;;;;;5076608;28;20286;-68
2022/01/08 09:02:58;;;;;;;0.40;0.40;;;2.80;95.60;;;;;;5076611;28;20174;-68
2022/01/08 09:05:24;;;;;;;0.40;0.40;;;2.90;95.50;;;;;;5076394;28;20645;-68
2022/01/08 09:07:50;;;;;;;0.50;0.50;;;3.10;95.80;;;;;;5076314;28;20594;-68
2022/01/08 09:10:18;;;;;;;0.30;0.30;;;3.20;95.20;;;;;;5076196;28;20260;-68
2022/01/08 09:12:44;;;;;;;0.40;0.40;;;3.00;94.70;;;;;;5076462;28;20647;-68
2022/01/08 09:15:10;;;;;;;0.30;0.30;;;2.90;94.90;;;;;;5076217;28;20207;-68
2022/01/08 09:17:39;;;;;;;0.35;0.35;;;3.10;95.30;;;;;;5076274;28;20172;-68
2022/01/08 09:20:05;;;;;;;0.30;0.30;;;3.20;95.00;;;;;;5076475;28;20544;-68
2022/01/08 09:22:32;;;;;;;0.40;0.40;;;3.30;94.80;;;;;;5076265;28;20250;-68
2022/01/08 09:24:58;;;;;;;0.30;0.30;;;3.20;94.50;;;;;;5076308;28;20259;-68
2022/01/08 09:27:23;;;;;;;0.33;0.33;;;3.30;94.60;;;;;;5075949;28;20613;-68
2022/01/08 09:29:49;;;;;;;0.30;0.30;;;3.40;94.60;;;;;;5075866;28;20753;-68
2022/01/08 09:32:17;;;;;;;0.30;0.30;;;3.20;94.00;;;;;;5076238;28;20165;-68
2022/01/08 09:34:44;;;;;;;0.30;0.30;;;3.20;94.50;;;;;;5075807;28;20409;-68
2022/01/08 09:37:10;;;;;;;0.30;0.30;;;3.40;94.70;;;;;;5075604;28;20208;-68
2022/01/08 09:39:36;;;;;;;0.40;0.40;;;3.60;94.40;;;;;;5075408;28;20223;-68
2022/01/08 09:42:03;;;;;;;0.40;0.40;;;3.60;94.00;;;;;;5075738;28;20169;-68
2022/01/08 09:44:29;;;;;;;0.40;0.40;;;3.60;93.90;;;;;;5075725;28;20398;-68
2022/01/08 09:46:55;;;;;;;0.30;0.30;;;3.40;93.70;;;;;;5075600;28;20653;-68
2022/01/08 09:49:20;;;;;;;0.40;0.40;;;3.40;94.00;;;;;;5075426;28;20450;-68
2022/01/08 09:51:46;;;;;;;0.30;0.30;;;3.50;94.20;;;;;;5075560;28;20406;-68
2022/01/08 09:54:11;;;;;;;0.30;0.30;;;3.50;94.10;;;;;;5075952;28;20547;-68
2022/01/08 09:56:37;;;;;;;0.40;0.40;;;3.60;94.10;;;;;;5075409;28;20192;-68
2022/01/08 09:59:03;;;;;;;0.30;0.30;;;3.60;94.20;;;;;;5075063;28;20271;-68
2022/01/08 10:01:31;;;;;;;0.30;0.30;;;3.70;94.20;;;;;;5075388;28;20169;-68
2022/01/08 10:04:01;;;;;;;0.40;0.40;;;3.70;94.30;;;;;;5075477;28;20639;-68
2022/01/08 10:06:32;;;;;;;0.30;0.30;;;3.70;93.80;;;;;;5075117;28;20196;-68
2022/01/08 10:08:59;;;;;;;0.38;0.38;;;3.70;93.60;;;;;;5075300;28;20180;-68
2022/01/08 10:11:26;;;;;;;0.30;0.30;;;3.50;93.70;;;;;;5075127;28;20573;-68
2022/01/08 10:14:05;;;;;;;0.40;0.40;;;3.80;93.80;;;;;;5075291;28;20178;-68
2022/01/08 10:19:21;;;;;;;0.38;0.38;;;4.60;93.20;;;;;;5074996;28;20573;-68
2022/01/08 10:21:47;;;;;;;0.30;0.30;;;4.60;91.30;;;;;;5075208;28;20161;-68
2022/01/08 10:24:18;;;;;;;0.30;0.30;;;4.70;91.80;;;;;;5075029;28;20199;-67
2022/01/08 10:26:45;;;;;;;0.40;0.40;;;4.70;91.20;;;;;;5074982;28;20199;-68
2022/01/08 10:29:14;;;;;;;0.30;0.30;;;4.40;91.50;;;;;;5074775;28;20173;-68
2022/01/08 10:31:47;;;;;;;0.40;0.40;;;4.30;91.70;;;;;;5074972;28;20173;-68
2022/01/08 10:34:14;;;;;;;0.30;0.30;;;4.30;92.20;;;;;;5074810;28;20184;-68
2022/01/08 10:36:56;;;;;;;0.40;0.40;;;4.20;91.80;;;;;;5074608;28;20193;-68
2022/01/08 10:39:25;;;;;;;0.40;0.40;;;4.30;92.70;;;;;;5074390;28;20193;-68
2022/01/08 10:41:55;;;;;;;0.40;0.40;;;4.50;92.40;;;;;;5074538;28;20635;-68
2022/01/08 10:44:23;;;;;;;0.35;0.35;;;4.70;91.40;;;;;;5074663;28;20693;-68
2022/01/08 10:46:52;;;;;;;0.40;0.40;;;4.80;90.80;;;;;;5074268;28;20193;-68
2022/01/08 10:49:28;;;;;;;0.40;0.40;;;4.80;90.20;;;;;;5073251;28;20333;-68
2022/01/08 10:51:57;;;;;;;0.38;0.38;;;4.60;90.50;;;;;;5074519;28;20169;-68
2022/01/08 10:54:27;;;;;;;0.40;0.40;;;4.20;91.10;;;;;;5074288;28;20170;-68
2022/01/08 10:56:59;;;;;;;0.30;0.30;;;4.40;91.50;;;;;;5074567;28;20185;-68
2022/01/08 10:59:26;;;;;;;0.40;0.40;;;4.30;91.10;;;;;;5074035;28;20693;-68
2022/01/08 11:02:05;;;;;;;0.30;0.30;;;4.40;91.10;;;;;;5074320;28;20257;-68
2022/01/08 11:04:45;;;;;;;0.40;0.40;;;4.50;91.20;;;;;;5074261;28;20218;-68
2022/01/08 11:07:13;;;;;;;0.40;0.40;;;4.50;91.40;;;;;;5073989;28;20177;-68
2022/01/08 11:09:41;;;;;;;0.40;0.40;;;4.50;90.80;;;;;;5073741;28;20272;-68
2022/01/08 11:12:10;;;;;;;0.40;0.40;;;4.60;90.50;;;;;;5074209;28;20231;-68
2022/01/08 11:17:23;;;;;;;0.40;0.40;;;4.60;91.00;;;;;;5073842;28;20224;-68
2022/01/08 11:19:51;;;;;;;0.40;0.40;;;4.60;90.80;;;;;;5073596;28;20208;-68
2022/01/08 11:22:20;;;;;;;0.40;0.40;;;4.50;90.60;;;;;;5073739;28;20201;-68
2022/01/08 11:24:52;;;;;;;0.40;0.40;;;4.40;91.20;;;;;;5073786;28;20170;-68
2022/01/08 11:27:21;;;;;;;0.30;0.30;;;4.50;90.90;;;;;;5073573;28;20185;-68
2022/01/08 11:30:09;;;;;;;0.40;0.40;;;4.60;91.10;;;;;;5073414;28;20238;-68
2022/01/08 11:32:37;;;;;;;0.40;0.40;;;4.50;89.90;;;;;;5073890;28;20252;-68
2022/01/08 11:35:05;;;;;;;0.30;0.30;;;4.40;90.10;;;;;;5073603;28;20180;-68
2022/01/08 11:37:31;;;;;;;0.40;0.40;;;4.00;90.20;;;;;;5073587;28;20217;-68
2022/01/08 11:40:03;;;;;;;0.30;0.30;;;4.00;90.80;;;;;;5073224;28;20686;-68
2022/01/08 11:42:31;;;;;;;0.40;0.40;;;3.90;91.00;;;;;;5073817;28;20173;-68
2022/01/08 11:44:59;;;;;;;0.40;0.40;;;4.20;91.30;;;;;;5073567;28;20565;-68
2022/01/08 11:47:29;;;;;;;0.40;0.40;;;4.40;91.20;;;;;;5073385;28;20190;-68
2022/01/08 11:49:57;;;;;;;0.30;0.30;;;4.60;90.90;;;;;;5073518;28;20177;-68
2022/01/08 11:52:24;;;;;;;0.40;0.40;;;4.80;90.50;;;;;;5073599;28;20173;-68
2022/01/08 11:54:52;;;;;;;0.40;0.40;;;5.00;89.90;;;;;;5073315;28;20175;-68
2022/01/08 11:57:26;;;;;;;0.40;0.40;;;4.90;90.30;;;;;;5073326;28;20197;-68
2022/01/08 11:59:57;;;;;;;0.30;0.30;;;5.00;90.10;;;;;;5072899;28;20211;-67
2022/01/08 12:02:38;;;;;;;0.40;0.40;;;5.10;90.30;;;;;;5073563;28;20157;-68
2022/01/08 12:05:05;;;;;;;0.40;0.40;;;5.10;90.00;;;;;;5073669;28;20166;-68
2022/01/08 12:07:39;;;;;;;0.38;0.38;;;5.00;90.10;;;;;;5073204;28;20173;-67
2022/01/08 12:10:30;;;;;;;0.40;0.40;;;4.50;89.90;;;;;;5073188;28;20173;-68
2022/01/08 12:13:00;;;;;;;0.30;0.30;;;4.60;91.00;;;;;;5073437;28;20201;-68
2022/01/08 12:15:40;;;;;;;0.30;0.30;;;4.70;90.80;;;;;;5073538;28;20192;-68
2022/01/08 12:18:08;;;;;;;0.35;0.35;;;4.30;90.50;;;;;;5072951;28;20201;-68
2022/01/08 12:20:56;;;;;;;0.40;0.40;;;4.40;91.40;;;;;;5073176;28;20670;-68
2022/01/08 12:23:39;;;;;;;0.40;0.40;;;4.30;91.20;;;;;;5071987;28;20204;-68
2022/01/08 12:26:28;;;;;;;0.40;0.40;;;4.60;91.20;;;;;;5073027;28;20189;-68
2022/01/08 12:28:59;;;;;;;0.40;0.40;;;4.30;90.80;;;;;;5072809;28;20175;-68
2022/01/08 12:31:50;;;;;;;0.40;0.40;;;4.40;91.10;;;;;;5073127;28;20172;-68
2022/01/08 12:34:29;;;;;;;0.40;0.40;;;4.40;91.30;;;;;;5073277;28;20158;-68
2022/01/08 12:36:57;;;;;;;0.40;0.40;;;4.40;91.30;;;;;;5071679;28;20619;-68
2022/01/08 12:39:44;;;;;;;0.30;0.30;;;4.50;91.30;;;;;;5072916;28;20228;-68
2022/01/08 12:42:27;;;;;;;0.40;0.40;;;3.90;91.20;;;;;;5073145;28;20165;-68
2022/01/08 12:45:18;;;;;;;0.40;0.40;;;3.90;92.00;;;;;;5072977;28;20162;-68
2022/01/08 12:47:53;;;;;;;0.40;0.40;;;4.00;92.00;;;;;;5072842;28;20186;-68
2022/01/08 12:50:32;;;;;;;0.30;0.30;;;4.00;91.60;;;;;;5073038;28;20184;-68
2022/01/08 12:53:06;;;;;;;0.40;0.40;;;4.00;92.10;;;;;;5073075;28;20252;-68
2022/01/08 12:55:42;;;;;;;0.30;0.30;;;3.80;92.20;;;;;;5072760;28;20195;-68
2022/01/08 12:58:16;;;;;;;0.30;0.30;;;4.00;92.10;;;;;;5072696;28;20218;-67
2022/01/08 13:00:55;;;;;;;0.30;0.30;;;4.00;92.00;;;;;;5072903;28;20203;-68
2022/01/08 13:03:30;;;;;;;0.30;0.30;;;4.20;92.40;;;;;;5073158;28;20165;-68
2022/01/08 13:05:58;;;;;;;0.40;0.40;;;4.30;91.90;;;;;;5072663;28;20199;-68
2022/01/08 13:08:28;;;;;;;0.40;0.40;;;4.40;92.00;;;;;;5072592;28;20256;-68
2022/01/08 13:10:57;;;;;;;0.40;0.40;;;4.80;92.00;;;;;;5072844;28;20181;-68
2022/01/08 13:13:39;;;;;;;0.40;0.40;;;5.10;91.90;;;;;;5075652;28;20257;-68
2022/01/08 13:16:13;;;;;;;0.30;0.30;;;5.10;90.70;;;;;;5076131;28;20232;-68
2022/01/08 13:18:39;;;;;;;0.40;0.40;;;4.90;90.70;;;;;;5076075;28;20177;-68
2022/01/08 13:21:06;;;;;;;0.40;0.40;;;5.10;90.90;;;;;;5076129;28;20201;-68
2022/01/08 13:23:41;;;;;;;0.40;0.40;;;5.50;91.30;;;;;;5076257;28;20223;-68
2022/01/08 13:26:07;;;;;;;0.32;0.32;;;5.60;90.40;;;;;;5076189;28;20185;-68